sensor_id;sensor_type;location;lat;lon;timestamp;temperature;humidity
34542;DHT22;20784;51.332;12.410;2022-08-19T00:03:06;21.20;99.90
34542;DHT22;20784;51.332;12.410;2022-08-19T00:06:06;21.30;99.90
34542;DHT22;20784;51.332;12.410;2022-08-19T00:08:49;21.20;99.90
34542;DHT22;20784;51.332;12.410;2022-08-19T00:12:06;21.30;99.90
34542;DHT22;20784;51.332;12.410;2022-08-19T00:22:42;21.40;99.90
34542;DHT22;20784;51.332;12.410;2022-08-19T00:25:20;21.30;99.90
34542;DHT22;20784;51.332;12.410;2022-08-19T00:35:52;21.30;99.90
34542;DHT22;20784;51.332;12.410;2022-08-19T00:38:44;21.30;99.90
34542;DHT22;20784;51.332;12.410;2022-08-19T00:41:23;21.30;99.90
34542;DHT22;20784;51.332;12.410;2022-08-19T00:44:37;21.20;99.90
34542;DHT22;20784;51.332;12.410;2022-08-19T00:47:40;21.20;99.90
34542;DHT22;20784;51.332;12.410;2022-08-19T00:50:20;21.20;99.90
34542;DHT22;20784;51.332;12.410;2022-08-19T00:52:49;21.10;99.90
34542;DHT22;20784;51.332;12.410;2022-08-19T00:55:28;21.20;99.90
34542;DHT22;20784;51.332;12.410;2022-08-19T00:58:03;21.10;99.90
34542;DHT22;20784;51.332;12.410;2022-08-19T01:00:31;21.10;99.90
34542;DHT22;20784;51.332;12.410;2022-08-19T01:03:31;21.10;99.90
34542;DHT22;20784;51.332;12.410;2022-08-19T01:06:14;21.10;99.90
34542;DHT22;20784;51.332;12.410;2022-08-19T01:08:50;21.10;99.90
34542;DHT22;20784;51.332;12.410;2022-08-19T01:11:36;21.10;99.90
34542;DHT22;20784;51.332;12.410;2022-08-19T01:14:04;21.10;99.90
34542;DHT22;20784;51.332;12.410;2022-08-19T01:16:41;21.10;99.90
34542;DHT22;20784;51.332;12.410;2022-08-19T01:19:32;21.10;99.90
34542;DHT22;20784;51.332;12.410;2022-08-19T01:22:31;21.10;99.90
34542;DHT22;20784;51.332;12.410;2022-08-19T01:25:09;21.10;99.90
34542;DHT22;20784;51.332;12.410;2022-08-19T01:30:48;21.10;99.90
34542;DHT22;20784;51.332;12.410;2022-08-19T01:33:20;21.00;99.90
34542;DHT22;20784;51.332;12.410;2022-08-19T01:36:37;21.00;99.90
34542;DHT22;20784;51.332;12.410;2022-08-19T01:39:30;21.00;99.90
34542;DHT22;20784;51.332;12.410;2022-08-19T01:41:57;21.00;99.90
34542;DHT22;20784;51.332;12.410;2022-08-19T01:47:35;20.90;99.90
34542;DHT22;20784;51.332;12.410;2022-08-19T01:50:30;21.00;99.90
34542;DHT22;20784;51.332;12.410;2022-08-19T01:53:05;20.90;99.90
34542;DHT22;20784;51.332;12.410;2022-08-19T01:55:39;20.80;99.90
34542;DHT22;20784;51.332;12.410;2022-08-19T02:01:34;20.80;99.90
34542;DHT22;20784;51.332;12.410;2022-08-19T02:04:23;20.80;99.90
34542;DHT22;20784;51.332;12.410;2022-08-19T02:07:17;20.70;99.90
34542;DHT22;20784;51.332;12.410;2022-08-19T02:09:50;20.70;99.90
34542;DHT22;20784;51.332;12.410;2022-08-19T02:12:15;20.70;99.90
34542;DHT22;20784;51.332;12.410;2022-08-19T02:14:50;20.80;99.90
34542;DHT22;20784;51.332;12.410;2022-08-19T02:17:21;20.80;99.90
34542;DHT22;20784;51.332;12.410;2022-08-19T02:19:50;20.90;99.90
34542;DHT22;20784;51.332;12.410;2022-08-19T02:22:22;20.70;99.90
34542;DHT22;20784;51.332;12.410;2022-08-19T02:24:51;20.80;99.90
34542;DHT22;20784;51.332;12.410;2022-08-19T02:27:20;20.80;99.90
34542;DHT22;20784;51.332;12.410;2022-08-19T02:29:59;20.80;99.90
34542;DHT22;20784;51.332;12.410;2022-08-19T02:32:27;20.80;99.90
34542;DHT22;20784;51.332;12.410;2022-08-19T02:34:58;20.70;99.90
34542;DHT22;20784;51.332;12.410;2022-08-19T02:37:27;20.70;99.90
34542;DHT22;20784;51.332;12.410;2022-08-19T02:40:12;20.80;99.90
34542;DHT22;20784;51.332;12.410;2022-08-19T02:42:43;20.80;99.90
34542;DHT22;20784;51.332;12.410;2022-08-19T02:45:09;20.90;99.90
34542;DHT22;20784;51.332;12.410;2022-08-19T02:47:35;20.90;99.90
34542;DHT22;20784;51.332;12.410;2022-08-19T02:50:12;21.00;99.90
34542;DHT22;20784;51.332;12.410;2022-08-19T02:52:45;21.00;99.90
34542;DHT22;20784;51.332;12.410;2022-08-19T02:55:18;21.00;99.90
34542;DHT22;20784;51.332;12.410;2022-08-19T02:57:56;21.10;99.90
34542;DHT22;20784;51.332;12.410;2022-08-19T03:00:24;21.00;99.90
34542;DHT22;20784;51.332;12.410;2022-08-19T03:02:58;21.00;99.90
34542;DHT22;20784;51.332;12.410;2022-08-19T03:05:28;20.90;99.90
34542;DHT22;20784;51.332;12.410;2022-08-19T03:08:14;20.90;99.90
34542;DHT22;20784;51.332;12.410;2022-08-19T03:10:47;21.00;99.90
34542;DHT22;20784;51.332;12.410;2022-08-19T03:13:21;21.00;99.90
34542;DHT22;20784;51.332;12.410;2022-08-19T03:15:55;21.00;99.90
34542;DHT22;20784;51.332;12.410;2022-08-19T03:18:30;21.00;99.90
34542;DHT22;20784;51.332;12.410;2022-08-19T03:21:24;21.00;99.90
34542;DHT22;20784;51.332;12.410;2022-08-19T03:23:56;21.10;99.90
34542;DHT22;20784;51.332;12.410;2022-08-19T03:26:46;21.10;99.90
34542;DHT22;20784;51.332;12.410;2022-08-19T03:32:13;21.10;99.90
34542;DHT22;20784;51.332;12.410;2022-08-19T03:34:47;21.10;99.90
34542;DHT22;20784;51.332;12.410;2022-08-19T03:37:33;21.10;99.90
34542;DHT22;20784;51.332;12.410;2022-08-19T03:40:41;21.00;99.90
34542;DHT22;20784;51.332;12.410;2022-08-19T03:43:21;21.10;99.90
34542;DHT22;20784;51.332;12.410;2022-08-19T03:46:02;21.10;99.90
34542;DHT22;20784;51.332;12.410;2022-08-19T03:48:43;21.10;99.90
34542;DHT22;20784;51.332;12.410;2022-08-19T03:51:19;21.10;99.90
34542;DHT22;20784;51.332;12.410;2022-08-19T03:53:54;21.10;99.90
34542;DHT22;20784;51.332;12.410;2022-08-19T03:56:32;21.00;99.90
34542;DHT22;20784;51.332;12.410;2022-08-19T04:02:21;21.10;99.90
34542;DHT22;20784;51.332;12.410;2022-08-19T04:04:55;21.00;99.90
34542;DHT22;20784;51.332;12.410;2022-08-19T04:10:34;21.00;99.90
34542;DHT22;20784;51.332;12.410;2022-08-19T04:13:06;21.00;99.90
34542;DHT22;20784;51.332;12.410;2022-08-19T04:15:38;21.00;99.90
34542;DHT22;20784;51.332;12.410;2022-08-19T04:18:09;21.00;99.90
34542;DHT22;20784;51.332;12.410;2022-08-19T04:20:48;21.00;99.90
34542;DHT22;20784;51.332;12.410;2022-08-19T04:23:16;21.00;99.90
34542;DHT22;20784;51.332;12.410;2022-08-19T04:25:49;21.00;99.90
34542;DHT22;20784;51.332;12.410;2022-08-19T04:28:15;21.00;99.90
34542;DHT22;20784;51.332;12.410;2022-08-19T04:30:46;21.10;99.90
34542;DHT22;20784;51.332;12.410;2022-08-19T04:33:14;21.10;99.90
34542;DHT22;20784;51.332;12.410;2022-08-19T04:35:44;21.10;99.90
34542;DHT22;20784;51.332;12.410;2022-08-19T04:38:10;21.00;99.90
34542;DHT22;20784;51.332;12.410;2022-08-19T04:40:44;21.00;99.90
34542;DHT22;20784;51.332;12.410;2022-08-19T04:43:33;21.10;99.90
34542;DHT22;20784;51.332;12.410;2022-08-19T04:46:06;21.00;99.90
34542;DHT22;20784;51.332;12.410;2022-08-19T04:48:35;21.00;99.90
34542;DHT22;20784;51.332;12.410;2022-08-19T04:51:18;21.00;99.90
34542;DHT22;20784;51.332;12.410;2022-08-19T04:53:45;21.00;99.90
34542;DHT22;20784;51.332;12.410;2022-08-19T04:56:20;21.00;99.90
34542;DHT22;20784;51.332;12.410;2022-08-19T04:58:48;21.00;99.90
34542;DHT22;20784;51.332;12.410;2022-08-19T05:01:27;21.10;99.90
34542;DHT22;20784;51.332;12.410;2022-08-19T05:03:57;21.10;99.90
34542;DHT22;20784;51.332;12.410;2022-08-19T05:06:32;21.10;99.90
34542;DHT22;20784;51.332;12.410;2022-08-19T05:09:24;21.10;99.90
34542;DHT22;20784;51.332;12.410;2022-08-19T05:11:53;21.20;99.90
34542;DHT22;20784;51.332;12.410;2022-08-19T05:14:19;21.20;99.90
34542;DHT22;20784;51.332;12.410;2022-08-19T05:17:28;21.20;99.90
34542;DHT22;20784;51.332;12.410;2022-08-19T05:23:41;21.10;99.90
34542;DHT22;20784;51.332;12.410;2022-08-19T05:26:14;21.00;99.90
34542;DHT22;20784;51.332;12.410;2022-08-19T05:28:41;21.00;99.90
34542;DHT22;20784;51.332;12.410;2022-08-19T05:31:14;21.00;99.90
34542;DHT22;20784;51.332;12.410;2022-08-19T05:33:43;20.90;99.90
34542;DHT22;20784;51.332;12.410;2022-08-19T05:36:11;20.90;99.90
34542;DHT22;20784;51.332;12.410;2022-08-19T05:38:40;21.00;99.90
34542;DHT22;20784;51.332;12.410;2022-08-19T05:41:11;20.90;99.90
34542;DHT22;20784;51.332;12.410;2022-08-19T05:43:40;21.10;99.90
34542;DHT22;20784;51.332;12.410;2022-08-19T05:46:07;21.10;99.90
34542;DHT22;20784;51.332;12.410;2022-08-19T05:48:34;21.20;99.90
34542;DHT22;20784;51.332;12.410;2022-08-19T05:51:08;21.10;99.90
34542;DHT22;20784;51.332;12.410;2022-08-19T05:53:35;21.20;99.90
34542;DHT22;20784;51.332;12.410;2022-08-19T05:56:05;21.20;99.90
34542;DHT22;20784;51.332;12.410;2022-08-19T05:58:31;21.20;99.90
34542;DHT22;20784;51.332;12.410;2022-08-19T06:01:01;21.20;99.90
34542;DHT22;20784;51.332;12.410;2022-08-19T06:03:33;21.30;99.90
34542;DHT22;20784;51.332;12.410;2022-08-19T06:06:08;21.30;99.90
34542;DHT22;20784;51.332;12.410;2022-08-19T06:08:50;21.20;99.90
34542;DHT22;20784;51.332;12.410;2022-08-19T06:14:31;21.30;99.90
34542;DHT22;20784;51.332;12.410;2022-08-19T06:23:32;21.20;99.90
34542;DHT22;20784;51.332;12.410;2022-08-19T06:26:47;21.20;99.90
34542;DHT22;20784;51.332;12.410;2022-08-19T06:29:40;21.20;99.90
34542;DHT22;20784;51.332;12.410;2022-08-19T06:32:42;21.20;99.90
34542;DHT22;20784;51.332;12.410;2022-08-19T06:41:48;21.00;99.90
34542;DHT22;20784;51.332;12.410;2022-08-19T06:45:04;21.10;99.90
34542;DHT22;20784;51.332;12.410;2022-08-19T06:47:57;21.00;99.90
34542;DHT22;20784;51.332;12.410;2022-08-19T06:51:09;21.00;99.90
34542;DHT22;20784;51.332;12.410;2022-08-19T06:53:47;21.00;99.90
34542;DHT22;20784;51.332;12.410;2022-08-19T06:59:32;20.90;99.90
34542;DHT22;20784;51.332;12.410;2022-08-19T07:02:08;20.90;99.90
34542;DHT22;20784;51.332;12.410;2022-08-19T07:04:48;20.90;99.90
34542;DHT22;20784;51.332;12.410;2022-08-19T07:07:36;20.80;99.90
34542;DHT22;20784;51.332;12.410;2022-08-19T07:13:18;20.90;99.90
34542;DHT22;20784;51.332;12.410;2022-08-19T07:18:46;20.80;99.90
34542;DHT22;20784;51.332;12.410;2022-08-19T07:21:23;20.70;99.90
34542;DHT22;20784;51.332;12.410;2022-08-19T07:24:01;20.70;99.90
34542;DHT22;20784;51.332;12.410;2022-08-19T07:26:43;20.70;99.90
34542;DHT22;20784;51.332;12.410;2022-08-19T07:29:13;20.70;99.90
34542;DHT22;20784;51.332;12.410;2022-08-19T07:31:47;20.70;99.90
34542;DHT22;20784;51.332;12.410;2022-08-19T07:34:13;20.60;99.90
34542;DHT22;20784;51.332;12.410;2022-08-19T07:36:45;20.60;99.90
34542;DHT22;20784;51.332;12.410;2022-08-19T07:39:37;20.60;99.90
34542;DHT22;20784;51.332;12.410;2022-08-19T07:45:31;20.60;99.90
34542;DHT22;20784;51.332;12.410;2022-08-19T07:48:21;20.60;99.90
34542;DHT22;20784;51.332;12.410;2022-08-19T07:50:57;20.60;99.90
34542;DHT22;20784;51.332;12.410;2022-08-19T07:53:47;20.70;99.90
34542;DHT22;20784;51.332;12.410;2022-08-19T07:56:48;20.70;99.90
34542;DHT22;20784;51.332;12.410;2022-08-19T07:59:37;20.80;99.90
34542;DHT22;20784;51.332;12.410;2022-08-19T08:06:30;20.90;99.90
34542;DHT22;20784;51.332;12.410;2022-08-19T08:12:32;20.90;99.90
34542;DHT22;20784;51.332;12.410;2022-08-19T08:15:27;20.90;99.90
34542;DHT22;20784;51.332;12.410;2022-08-19T08:21:19;20.90;99.90
34542;DHT22;20784;51.332;12.410;2022-08-19T08:24:13;20.90;99.90
34542;DHT22;20784;51.332;12.410;2022-08-19T08:27:04;21.00;99.90
34542;DHT22;20784;51.332;12.410;2022-08-19T08:29:33;20.90;99.90
34542;DHT22;20784;51.332;12.410;2022-08-19T08:32:11;20.90;99.90
34542;DHT22;20784;51.332;12.410;2022-08-19T08:37:21;20.90;99.90
34542;DHT22;20784;51.332;12.410;2022-08-19T08:40:01;20.90;99.90
34542;DHT22;20784;51.332;12.410;2022-08-19T08:43:39;20.90;99.90
34542;DHT22;20784;51.332;12.410;2022-08-19T08:46:40;20.90;99.90
34542;DHT22;20784;51.332;12.410;2022-08-19T08:49:56;21.00;99.90
34542;DHT22;20784;51.332;12.410;2022-08-19T08:52:36;20.90;99.90
34542;DHT22;20784;51.332;12.410;2022-08-19T08:55:15;21.00;99.90
34542;DHT22;20784;51.332;12.410;2022-08-19T09:04:08;21.00;99.90
34542;DHT22;20784;51.332;12.410;2022-08-19T09:10:41;21.10;99.90
34542;DHT22;20784;51.332;12.410;2022-08-19T09:16:27;21.30;99.90
34542;DHT22;20784;51.332;12.410;2022-08-19T09:19:56;21.20;99.90
34542;DHT22;20784;51.332;12.410;2022-08-19T09:22:24;21.20;99.90
34542;DHT22;20784;51.332;12.410;2022-08-19T09:31:11;21.40;99.90
34542;DHT22;20784;51.332;12.410;2022-08-19T09:33:39;21.40;99.90
34542;DHT22;20784;51.332;12.410;2022-08-19T09:36:17;21.50;99.90
34542;DHT22;20784;51.332;12.410;2022-08-19T09:39:11;21.40;99.90
34542;DHT22;20784;51.332;12.410;2022-08-19T09:41:43;21.50;99.90
34542;DHT22;20784;51.332;12.410;2022-08-19T09:44:11;21.50;99.90
34542;DHT22;20784;51.332;12.410;2022-08-19T09:49:40;21.50;99.90
34542;DHT22;20784;51.332;12.410;2022-08-19T09:52:11;21.40;99.90
34542;DHT22;20784;51.332;12.410;2022-08-19T09:54:45;21.50;99.90
34542;DHT22;20784;51.332;12.410;2022-08-19T09:57:24;21.50;99.90
34542;DHT22;20784;51.332;12.410;2022-08-19T10:00:26;21.50;99.90
34542;DHT22;20784;51.332;12.410;2022-08-19T10:03:03;21.60;99.90
34542;DHT22;20784;51.332;12.410;2022-08-19T10:05:35;21.70;99.90
34542;DHT22;20784;51.332;12.410;2022-08-19T10:08:35;21.80;99.90
34542;DHT22;20784;51.332;12.410;2022-08-19T10:11:21;21.80;99.90
34542;DHT22;20784;51.332;12.410;2022-08-19T10:17:08;22.00;99.90
34542;DHT22;20784;51.332;12.410;2022-08-19T10:19:57;22.10;99.90
34542;DHT22;20784;51.332;12.410;2022-08-19T10:22:28;22.20;99.90
34542;DHT22;20784;51.332;12.410;2022-08-19T10:24:56;22.20;99.90
34542;DHT22;20784;51.332;12.410;2022-08-19T10:27:24;22.20;99.90
34542;DHT22;20784;51.332;12.410;2022-08-19T10:29:52;22.40;99.90
34542;DHT22;20784;51.332;12.410;2022-08-19T10:32:18;22.50;99.90
34542;DHT22;20784;51.332;12.410;2022-08-19T10:34:44;22.60;99.90
34542;DHT22;20784;51.332;12.410;2022-08-19T10:37:12;22.70;99.90
34542;DHT22;20784;51.332;12.410;2022-08-19T10:39:40;22.50;99.90
34542;DHT22;20784;51.332;12.410;2022-08-19T10:42:06;22.50;99.90
34542;DHT22;20784;51.332;12.410;2022-08-19T10:44:32;22.40;99.90
34542;DHT22;20784;51.332;12.410;2022-08-19T10:47:00;22.40;99.90
34542;DHT22;20784;51.332;12.410;2022-08-19T10:49:26;22.30;99.90
34542;DHT22;20784;51.332;12.410;2022-08-19T10:51:54;22.20;99.90
34542;DHT22;20784;51.332;12.410;2022-08-19T10:54:38;22.10;99.90
34542;DHT22;20784;51.332;12.410;2022-08-19T10:57:35;22.10;99.90
34542;DHT22;20784;51.332;12.410;2022-08-19T11:00:06;22.30;99.90
34542;DHT22;20784;51.332;12.410;2022-08-19T11:02:40;22.30;99.90
34542;DHT22;20784;51.332;12.410;2022-08-19T11:05:15;22.30;99.90
34542;DHT22;20784;51.332;12.410;2022-08-19T11:08:09;22.30;99.90
34542;DHT22;20784;51.332;12.410;2022-08-19T11:11:03;22.30;99.90
34542;DHT22;20784;51.332;12.410;2022-08-19T11:13:41;22.20;99.90
34542;DHT22;20784;51.332;12.410;2022-08-19T11:16:20;22.10;99.90
34542;DHT22;20784;51.332;12.410;2022-08-19T11:19:11;22.00;99.90
34542;DHT22;20784;51.332;12.410;2022-08-19T11:21:55;22.00;99.90
34542;DHT22;20784;51.332;12.410;2022-08-19T11:24:38;22.00;99.90
34542;DHT22;20784;51.332;12.410;2022-08-19T11:27:30;22.00;99.90
34542;DHT22;20784;51.332;12.410;2022-08-19T11:30:04;22.10;99.90
34542;DHT22;20784;51.332;12.410;2022-08-19T11:32:30;22.30;99.90
34542;DHT22;20784;51.332;12.410;2022-08-19T11:34:59;22.30;99.90
34542;DHT22;20784;51.332;12.410;2022-08-19T11:37:24;22.20;99.90
34542;DHT22;20784;51.332;12.410;2022-08-19T11:39:50;22.30;99.90
34542;DHT22;20784;51.332;12.410;2022-08-19T11:42:18;22.10;99.90
34542;DHT22;20784;51.332;12.410;2022-08-19T11:45:03;22.10;99.90
34542;DHT22;20784;51.332;12.410;2022-08-19T11:50:53;22.30;99.90
34542;DHT22;20784;51.332;12.410;2022-08-19T11:53:23;22.40;99.90
34542;DHT22;20784;51.332;12.410;2022-08-19T11:59:04;22.50;99.90
34542;DHT22;20784;51.332;12.410;2022-08-19T12:01:44;22.80;99.90
34542;DHT22;20784;51.332;12.410;2022-08-19T12:04:25;22.90;99.90
34542;DHT22;20784;51.332;12.410;2022-08-19T12:07:00;23.10;99.90
34542;DHT22;20784;51.332;12.410;2022-08-19T12:09:37;23.40;99.90
34542;DHT22;20784;51.332;12.410;2022-08-19T12:12:31;23.80;99.90
34542;DHT22;20784;51.332;12.410;2022-08-19T12:15:13;24.20;99.90
34542;DHT22;20784;51.332;12.410;2022-08-19T12:17:53;24.50;99.90
34542;DHT22;20784;51.332;12.410;2022-08-19T12:20:45;24.90;99.90
34542;DHT22;20784;51.332;12.410;2022-08-19T12:23:21;25.10;99.90
34542;DHT22;20784;51.332;12.410;2022-08-19T12:25:50;25.00;99.90
34542;DHT22;20784;51.332;12.410;2022-08-19T12:28:41;24.90;99.90
34542;DHT22;20784;51.332;12.410;2022-08-19T12:34:05;25.30;99.90
34542;DHT22;20784;51.332;12.410;2022-08-19T12:36:36;25.60;99.90
34542;DHT22;20784;51.332;12.410;2022-08-19T12:39:02;25.90;99.90
34542;DHT22;20784;51.332;12.410;2022-08-19T12:41:28;26.20;99.90
34542;DHT22;20784;51.332;12.410;2022-08-19T12:44:06;26.40;99.90
34542;DHT22;20784;51.332;12.410;2022-08-19T12:46:46;26.30;99.90
34542;DHT22;20784;51.332;12.410;2022-08-19T12:52:38;26.20;99.90
34542;DHT22;20784;51.332;12.410;2022-08-19T12:55:21;26.40;99.90
34542;DHT22;20784;51.332;12.410;2022-08-19T12:58:33;26.30;99.90
34542;DHT22;20784;51.332;12.410;2022-08-19T13:01:07;26.20;99.90
34542;DHT22;20784;51.332;12.410;2022-08-19T13:03:54;26.20;99.90
34542;DHT22;20784;51.332;12.410;2022-08-19T13:06:49;26.20;99.90
34542;DHT22;20784;51.332;12.410;2022-08-19T13:09:36;26.40;99.90
34542;DHT22;20784;51.332;12.410;2022-08-19T13:12:12;26.40;99.90
34542;DHT22;20784;51.332;12.410;2022-08-19T13:14:45;26.40;99.90
34542;DHT22;20784;51.332;12.410;2022-08-19T13:17:15;26.40;99.90
34542;DHT22;20784;51.332;12.410;2022-08-19T13:19:41;26.30;99.90
34542;DHT22;20784;51.332;12.410;2022-08-19T13:22:18;26.10;99.90
34542;DHT22;20784;51.332;12.410;2022-08-19T13:24:53;25.90;99.90
34542;DHT22;20784;51.332;12.410;2022-08-19T13:27:22;25.80;99.90
34542;DHT22;20784;51.332;12.410;2022-08-19T13:29:51;25.60;99.90
34542;DHT22;20784;51.332;12.410;2022-08-19T13:32:35;25.50;99.90
34542;DHT22;20784;51.332;12.410;2022-08-19T13:35:19;25.10;99.90
34542;DHT22;20784;51.332;12.410;2022-08-19T13:37:45;24.90;99.90
34542;DHT22;20784;51.332;12.410;2022-08-19T13:40:21;24.80;99.90
34542;DHT22;20784;51.332;12.410;2022-08-19T13:42:54;24.60;99.90
34542;DHT22;20784;51.332;12.410;2022-08-19T13:45:25;24.60;99.90
34542;DHT22;20784;51.332;12.410;2022-08-19T13:48:14;24.50;99.90
34542;DHT22;20784;51.332;12.410;2022-08-19T13:50:44;24.40;99.90
34542;DHT22;20784;51.332;12.410;2022-08-19T13:53:13;24.30;99.90
34542;DHT22;20784;51.332;12.410;2022-08-19T13:55:42;24.30;99.90
34542;DHT22;20784;51.332;12.410;2022-08-19T13:58:25;24.30;99.90
34542;DHT22;20784;51.332;12.410;2022-08-19T14:01:29;24.30;99.90
34542;DHT22;20784;51.332;12.410;2022-08-19T14:03:58;24.10;99.90
34542;DHT22;20784;51.332;12.410;2022-08-19T14:06:34;24.10;99.90
34542;DHT22;20784;51.332;12.410;2022-08-19T14:09:16;24.20;99.90
34542;DHT22;20784;51.332;12.410;2022-08-19T14:11:47;24.10;99.90
34542;DHT22;20784;51.332;12.410;2022-08-19T14:14:18;24.10;99.90
34542;DHT22;20784;51.332;12.410;2022-08-19T14:16:49;24.10;99.90
34542;DHT22;20784;51.332;12.410;2022-08-19T14:19:15;24.10;99.90
34542;DHT22;20784;51.332;12.410;2022-08-19T14:21:41;24.10;99.90
34542;DHT22;20784;51.332;12.410;2022-08-19T14:24:09;24.10;99.90
34542;DHT22;20784;51.332;12.410;2022-08-19T14:26:40;24.10;99.90
34542;DHT22;20784;51.332;12.410;2022-08-19T14:29:08;24.10;99.90
34542;DHT22;20784;51.332;12.410;2022-08-19T14:31:34;24.10;99.90
34542;DHT22;20784;51.332;12.410;2022-08-19T14:34:08;24.10;99.90
34542;DHT22;20784;51.332;12.410;2022-08-19T14:39:23;24.00;99.90
34542;DHT22;20784;51.332;12.410;2022-08-19T14:41:51;24.00;99.90
34542;DHT22;20784;51.332;12.410;2022-08-19T14:44:30;24.00;99.90
34542;DHT22;20784;51.332;12.410;2022-08-19T14:47:12;24.00;99.90
34542;DHT22;20784;51.332;12.410;2022-08-19T14:49:49;24.00;99.90
34542;DHT22;20784;51.332;12.410;2022-08-19T14:52:29;24.10;99.90
34542;DHT22;20784;51.332;12.410;2022-08-19T14:55:14;24.00;99.90
34542;DHT22;20784;51.332;12.410;2022-08-19T14:57:42;24.00;99.90
34542;DHT22;20784;51.332;12.410;2022-08-19T15:00:11;24.00;99.90
34542;DHT22;20784;51.332;12.410;2022-08-19T15:02:55;23.90;99.90
34542;DHT22;20784;51.332;12.410;2022-08-19T15:05:28;23.90;99.90
34542;DHT22;20784;51.332;12.410;2022-08-19T15:08:04;23.90;99.90
34542;DHT22;20784;51.332;12.410;2022-08-19T15:10:59;23.80;99.90
34542;DHT22;20784;51.332;12.410;2022-08-19T15:13:40;23.80;99.90
34542;DHT22;20784;51.332;12.410;2022-08-19T15:18:44;23.70;99.90
34542;DHT22;20784;51.332;12.410;2022-08-19T15:21:17;23.70;99.90
34542;DHT22;20784;51.332;12.410;2022-08-19T15:23:48;23.70;99.90
34542;DHT22;20784;51.332;12.410;2022-08-19T15:26:22;23.80;99.90
34542;DHT22;20784;51.332;12.410;2022-08-19T15:28:58;23.70;99.90
34542;DHT22;20784;51.332;12.410;2022-08-19T15:31:27;23.70;99.90
34542;DHT22;20784;51.332;12.410;2022-08-19T15:36:53;23.80;99.90
34542;DHT22;20784;51.332;12.410;2022-08-19T15:39:36;23.70;99.90
34542;DHT22;20784;51.332;12.410;2022-08-19T15:42:11;23.70;99.90
34542;DHT22;20784;51.332;12.410;2022-08-19T15:45:05;23.60;99.90
34542;DHT22;20784;51.332;12.410;2022-08-19T15:47:56;23.70;99.90
34542;DHT22;20784;51.332;12.410;2022-08-19T15:50:22;23.60;99.90
34542;DHT22;20784;51.332;12.410;2022-08-19T15:53:06;23.50;99.90
34542;DHT22;20784;51.332;12.410;2022-08-19T15:55:43;23.50;99.90
34542;DHT22;20784;51.332;12.410;2022-08-19T15:58:17;23.60;99.90
34542;DHT22;20784;51.332;12.410;2022-08-19T16:01:09;23.60;99.90
34542;DHT22;20784;51.332;12.410;2022-08-19T16:03:58;23.50;99.90
34542;DHT22;20784;51.332;12.410;2022-08-19T16:06:52;23.30;99.90
34542;DHT22;20784;51.332;12.410;2022-08-19T16:09:32;23.20;99.90
34542;DHT22;20784;51.332;12.410;2022-08-19T16:12:16;23.10;99.90
34542;DHT22;20784;51.332;12.410;2022-08-19T16:15:04;23.10;99.90
34542;DHT22;20784;51.332;12.410;2022-08-19T16:17:32;23.10;99.90
34542;DHT22;20784;51.332;12.410;2022-08-19T16:23:10;23.00;99.90
34542;DHT22;20784;51.332;12.410;2022-08-19T16:25:36;23.10;99.90
34542;DHT22;20784;51.332;12.410;2022-08-19T16:28:12;23.10;99.90
34542;DHT22;20784;51.332;12.410;2022-08-19T16:30:46;23.10;99.90
34542;DHT22;20784;51.332;12.410;2022-08-19T16:36:23;23.10;99.90
34542;DHT22;20784;51.332;12.410;2022-08-19T16:38:55;23.00;99.90
34542;DHT22;20784;51.332;12.410;2022-08-19T16:41:34;23.00;99.90
34542;DHT22;20784;51.332;12.410;2022-08-19T16:44:18;23.00;99.90
34542;DHT22;20784;51.332;12.410;2022-08-19T16:46:58;22.90;99.90
34542;DHT22;20784;51.332;12.410;2022-08-19T16:52:38;23.00;99.90
34542;DHT22;20784;51.332;12.410;2022-08-19T16:57:52;23.00;99.90
34542;DHT22;20784;51.332;12.410;2022-08-19T17:04:14;23.10;99.90
34542;DHT22;20784;51.332;12.410;2022-08-19T17:07:11;23.10;99.90
34542;DHT22;20784;51.332;12.410;2022-08-19T17:09:47;23.00;99.90
34542;DHT22;20784;51.332;12.410;2022-08-19T17:12:13;23.00;99.90
34542;DHT22;20784;51.332;12.410;2022-08-19T17:14:51;22.90;99.90
34542;DHT22;20784;51.332;12.410;2022-08-19T17:17:17;22.90;99.90
34542;DHT22;20784;51.332;12.410;2022-08-19T17:19:46;22.90;99.90
34542;DHT22;20784;51.332;12.410;2022-08-19T17:22:17;22.90;99.90
34542;DHT22;20784;51.332;12.410;2022-08-19T17:25:21;22.90;99.90
34542;DHT22;20784;51.332;12.410;2022-08-19T17:28:05;22.80;99.90
34542;DHT22;20784;51.332;12.410;2022-08-19T17:31:13;22.80;99.90
34542;DHT22;20784;51.332;12.410;2022-08-19T17:33:53;22.80;99.90
34542;DHT22;20784;51.332;12.410;2022-08-19T17:36:27;22.80;99.90
34542;DHT22;20784;51.332;12.410;2022-08-19T17:39:05;22.70;99.90
34542;DHT22;20784;51.332;12.410;2022-08-19T17:41:38;22.80;99.90
34542;DHT22;20784;51.332;12.410;2022-08-19T17:44:26;22.70;99.90
34542;DHT22;20784;51.332;12.410;2022-08-19T17:47:36;22.70;99.90
34542;DHT22;20784;51.332;12.410;2022-08-19T17:50:07;22.70;99.90
34542;DHT22;20784;51.332;12.410;2022-08-19T17:52:53;22.60;99.90
34542;DHT22;20784;51.332;12.410;2022-08-19T17:55:22;22.50;99.90
34542;DHT22;20784;51.332;12.410;2022-08-19T17:58:21;22.60;99.90
34542;DHT22;20784;51.332;12.410;2022-08-19T18:01:15;22.50;99.90
34542;DHT22;20784;51.332;12.410;2022-08-19T18:08:00;22.40;99.90
34542;DHT22;20784;51.332;12.410;2022-08-19T18:10:44;22.40;99.90
34542;DHT22;20784;51.332;12.410;2022-08-19T18:13:46;22.30;99.90
34542;DHT22;20784;51.332;12.410;2022-08-19T18:16:14;22.30;99.90
34542;DHT22;20784;51.332;12.410;2022-08-19T18:21:54;22.20;99.90
34542;DHT22;20784;51.332;12.410;2022-08-19T18:31:40;22.10;99.90
34542;DHT22;20784;51.332;12.410;2022-08-19T18:38:11;22.10;99.90
34542;DHT22;20784;51.332;12.410;2022-08-19T18:44:23;22.00;99.90
34542;DHT22;20784;51.332;12.410;2022-08-19T18:50:39;22.00;99.90
34542;DHT22;20784;51.332;12.410;2022-08-19T18:54:06;22.00;99.90
34542;DHT22;20784;51.332;12.410;2022-08-19T18:56:53;21.90;99.90
34542;DHT22;20784;51.332;12.410;2022-08-19T19:00:11;21.90;99.90
34542;DHT22;20784;51.332;12.410;2022-08-19T19:03:29;21.90;99.90
34542;DHT22;20784;51.332;12.410;2022-08-19T19:06:07;21.90;99.90
34542;DHT22;20784;51.332;12.410;2022-08-19T19:08:50;22.00;99.90
34542;DHT22;20784;51.332;12.410;2022-08-19T19:11:34;22.00;99.90
34542;DHT22;20784;51.332;12.410;2022-08-19T19:14:11;22.00;99.90
34542;DHT22;20784;51.332;12.410;2022-08-19T19:17:10;22.00;99.90